Time;durP1;ratioP1;P1;durP2;ratioP2;P2;SDS_P1;SDS_P2;PMS_P1;PMS_P2;Temp;Humidity;BMP_temperature;BMP_pressure;BME280_temperature;BME280_humidity;BME280_pressure;Samples;Min_cycle;Max_cycle;Signal;HPM_P1;HPM_P2
2021/09/30 00:00:51;;;;;;;16.10;11.68;;;;;;;5.53;77.65;101178.29;1721904;82;21047;-72
2021/09/30 00:03:18;;;;;;;19.67;12.80;;;;;;;5.47;77.84;101177.77;1731302;82;21537;-71
2021/09/30 00:05:44;;;;;;;;;;;;;;;5.42;77.95;101180.77;1733452;83;21035;-72
2021/09/30 00:08:11;;;;;;;19.80;12.58;;;;;;;5.40;77.91;101178.26;1717072;83;20428;-72
2021/09/30 00:10:39;;;;;;;15.95;11.45;;;;;;;5.41;77.80;101175.88;1706485;83;21011;-72
2021/09/30 00:13:33;;;;;;;17.12;11.78;;;;;;;5.40;77.83;101178.77;1728919;83;21047;-72
2021/09/30 00:15:53;;;;;;;18.50;12.70;;;;;;;5.33;78.04;101176.06;1731392;81;21014;-72
2021/09/30 00:45:23;;;;;;;17.85;10.98;;;;;;;5.18;78.53;101164.58;1728315;83;20990;-71
2021/09/30 00:47:51;;;;;;;22.37;13.80;;;;;;;5.06;78.72;101170.77;1729109;83;21466;-72
2021/09/30 00:52:49;;;;;;;19.85;12.37;;;;;;;5.08;78.45;101173.56;1729518;82;21122;-72
2021/09/30 01:31:19;;;;;;;21.00;14.65;;;;;;;4.41;79.25;101175.58;1712621;82;21078;-71
2021/09/30 02:34:43;;;;;;;17.87;12.68;;;;;;;4.31;80.60;101164.31;1708848;81;21050;-71
2021/09/30 02:59:05;;;;;;;21.35;13.95;;;;;;;4.06;80.33;101158.20;1708092;83;21544;-72
2021/09/30 03:01:30;;;;;;;19.00;13.55;;;;;;;4.04;80.53;101159.73;1713069;81;21036;-71
2021/09/30 03:03:58;;;;;;;21.45;14.33;;;;;;;4.00;80.79;101160.62;1724794;82;21074;-71
2021/09/30 03:06:25;;;;;;;20.77;13.60;;;;;;;3.96;80.99;101163.42;1717851;82;21058;-72
2021/09/30 03:08:54;;;;;;;19.42;12.68;;;;;;;4.00;81.00;101163.33;1702191;83;21082;-71
2021/09/30 03:11:21;;;;;;;17.65;12.37;;;;;;;4.07;80.66;101163.91;1723748;83;21007;-72
2021/09/30 03:13:49;;;;;;;18.23;11.80;;;;;;;4.10;80.35;101171.09;1701010;83;21087;-72
2021/09/30 03:18:52;;;;;;;15.90;11.93;;;;;;;3.99;79.97;101173.80;1718905;83;21574;-72
2021/09/30 03:24:01;;;;;;;19.10;12.80;;;;;;;3.71;79.78;101173.43;1711111;82;21026;-70
2021/09/30 03:26:28;;;;;;;16.62;12.23;;;;;;;3.59;79.74;101175.79;1716491;82;21043;-72
2021/09/30 03:28:55;;;;;;;15.10;11.20;;;;;;;3.61;79.63;101173.76;1712650;82;21046;-71
2021/09/30 03:31:23;;;;;;;16.37;11.35;;;;;;;3.57;79.52;101176.50;1717710;83;21601;-71
2021/09/30 03:34:03;;;;;;;16.35;11.28;;;;;;;3.45;79.60;101177.52;1718102;82;21617;-72
2021/09/30 03:36:30;;;;;;;16.48;11.97;;;;;;;3.33;79.79;101177.67;1720591;82;21027;-71
2021/09/30 03:38:56;;;;;;;;;;;;;;;3.35;79.91;101182.37;1725422;83;22149;-71
2021/09/30 03:41:23;;;;;;;19.20;12.25;;;;;;;3.41;79.74;101171.34;1721737;83;20110;-72
2021/09/30 03:43:49;;;;;;;;;;;;;;;3.43;79.64;101180.08;1715653;82;21018;-71
2021/09/30 03:46:16;;;;;;;16.15;11.15;;;;;;;3.41;79.57;101176.73;1713977;83;20139;-71
2021/09/30 03:48:52;;;;;;;18.50;11.88;;;;;;;3.28;79.78;101179.28;1725093;81;21055;-71
2021/09/30 03:51:21;;;;;;;17.48;12.05;;;;;;;3.20;79.89;101180.22;1714761;81;21134;-71
2021/09/30 03:56:37;;;;;;;19.60;12.78;;;;;;;3.16;79.82;101176.73;1681157;85;21046;-70
2021/09/30 04:01:44;;;;;;;16.05;11.95;;;;;;;3.20;79.35;101178.03;1671311;83;21513;-71
2021/09/30 04:04:10;;;;;;;16.80;11.63;;;;;;;3.17;79.34;101176.56;1732660;81;21086;-72
2021/09/30 04:06:39;;;;;;;16.27;11.35;;;;;;;3.12;79.39;101178.97;1728332;83;21078;-69
2021/09/30 04:09:05;;;;;;;15.40;10.95;;;;;;;3.08;79.43;101183.09;1719000;81;21047;-69
2021/09/30 04:11:33;;;;;;;15.68;11.38;;;;;;;3.03;79.50;101177.94;1717565;83;21067;-68
2021/09/30 04:14:01;;;;;;;20.25;12.20;;;;;;;3.02;79.42;101179.78;1717634;82;21027;-69
2021/09/30 04:16:29;;;;;;;16.85;11.80;;;;;;;3.07;79.22;101181.92;1716979;82;21071;-69
2021/09/30 04:18:56;;;;;;;16.37;11.78;;;;;;;3.11;79.07;101189.94;1717089;81;21115;-69
2021/09/30 04:21:23;;;;;;;15.83;10.72;;;;;;;3.10;79.10;101190.95;1718463;83;21002;-69
2021/09/30 04:23:49;;;;;;;16.85;10.80;;;;;;;3.05;79.30;101185.33;1733098;81;21011;-69
2021/09/30 04:26:15;;;;;;;19.15;11.48;;;;;;;3.01;79.46;101184.86;1714294;83;21031;-68
2021/09/30 04:28:43;;;;;;;18.77;11.57;;;;;;;3.05;79.50;101182.63;1714173;82;21563;-69
2021/09/30 04:31:09;;;;;;;14.85;10.93;;;;;;;3.14;79.34;101181.48;1706803;83;21020;-69
2021/09/30 04:33:38;;;;;;;14.05;10.28;;;;;;;3.21;79.25;101178.37;1712500;83;21130;-69
2021/09/30 04:36:04;;;;;;;13.35;9.60;;;;;;;3.24;79.22;101186.90;1754346;81;21043;-69
2021/09/30 04:38:31;;;;;;;16.55;11.73;;;;;;;3.22;79.37;101176.84;1715498;83;21055;-69
2021/09/30 04:40:58;;;;;;;16.25;11.88;;;;;;;3.22;79.55;101183.58;1709562;83;21027;-69
2021/09/30 04:43:24;;;;;;;16.52;11.78;;;;;;;3.26;79.58;101187.53;1717877;82;21043;-69
2021/09/30 04:45:51;;;;;;;14.35;10.23;;;;;;;3.33;79.53;101183.06;1717485;83;21066;-69
2021/09/30 04:48:18;;;;;;;14.70;10.48;;;;;;;3.40;79.48;101194.73;1708953;83;21629;-69
2021/09/30 04:50:46;;;;;;;13.58;9.70;;;;;;;3.42;79.57;101188.66;1689340;81;21073;-69
2021/09/30 04:53:13;;;;;;;15.95;11.00;;;;;;;3.43;79.78;101194.38;1693313;83;21082;-69
2021/09/30 04:55:40;;;;;;;16.82;12.65;;;;;;;3.46;79.98;101190.47;1713509;83;21030;-69
2021/09/30 04:58:07;;;;;;;17.98;12.25;;;;;;;3.57;80.07;101194.01;1704509;83;21593;-69
2021/09/30 05:00:35;;;;;;;15.32;10.55;;;;;;;3.78;79.98;101191.83;1716642;83;21585;-69
2021/09/30 05:03:12;;;;;;;15.72;11.70;;;;;;;3.99;79.96;101191.83;1718154;81;21000;-68
2021/09/30 05:05:39;;;;;;;17.50;11.25;;;;;;;4.24;80.20;101192.25;1716151;83;21071;-69
2021/09/30 05:08:06;;;;;;;17.48;11.95;;;;;;;4.48;80.37;101187.25;1714193;83;21421;-69
2021/09/30 05:10:35;;;;;;;14.47;11.20;;;;;;;4.77;80.07;101196.14;1726798;83;21054;-69
2021/09/30 05:13:09;;;;;;;14.83;11.30;;;;;;;5.09;79.79;101191.44;1688044;85;21032;-69
2021/09/30 05:15:36;;;;;;;19.55;12.20;;;;;;;5.38;79.24;101202.46;1688504;83;21134;-69
2021/09/30 05:18:06;;;;;;;16.05;11.03;;;;;;;5.66;79.22;101196.93;1695106;83;21075;-69
2021/09/30 05:20:35;;;;;;;16.70;10.23;;;;;;;5.94;79.35;101187.66;1709037;83;21042;-68
2021/09/30 05:23:01;;;;;;;12.98;9.43;;;;;;;6.20;78.96;101199.53;1716559;82;21071;-67
2021/09/30 05:25:28;;;;;;;18.35;10.60;;;;;;;6.54;78.61;101197.95;1697637;83;21494;-68
2021/09/30 05:27:54;;;;;;;16.55;11.68;;;;;;;6.83;77.87;101199.36;1701700;83;21074;-70
2021/09/30 05:30:21;;;;;;;21.23;13.88;;;;;;;7.06;77.44;101199.70;1694250;83;20984;-70
2021/09/30 05:32:49;;;;;;;19.90;13.88;;;;;;;7.26;77.34;101198.28;1689615;83;21596;-71
2021/09/30 05:35:19;;;;;;;20.57;14.13;;;;;;;7.48;77.26;101208.59;1715799;82;20976;-71
2021/09/30 05:37:53;;;;;;;21.68;13.68;;;;;;;7.81;77.12;101211.12;1717852;83;21067;-70
2021/09/30 05:40:20;;;;;;;;;;;;;;;8.16;76.58;101206.59;1712883;83;20991;-70
2021/09/30 05:42:48;;;;;;;22.98;15.40;;;;;;;8.44;76.08;101211.09;1690368;83;20105;-70
2021/09/30 05:45:16;;;;;;;22.70;15.25;;;;;;;8.63;75.62;101210.62;1707778;83;21008;-70
2021/09/30 05:47:45;;;;;;;21.68;15.50;;;;;;;8.85;75.14;101207.27;1687349;83;21059;-70
2021/09/30 05:50:15;;;;;;;20.55;14.68;;;;;;;9.16;74.48;101217.69;1689579;83;20972;-70
2021/09/30 05:52:51;;;;;;;24.18;15.20;;;;;;;9.51;73.57;101213.27;1696286;83;21087;-69
2021/09/30 05:55:33;;;;;;;18.48;14.20;;;;;;;9.74;72.18;101217.44;1695578;83;21000;-69
2021/09/30 05:58:01;;;;;;;21.45;14.95;;;;;;;9.84;71.07;101215.55;1703457;83;21569;-68
2021/09/30 06:00:37;;;;;;;21.93;14.15;;;;;;;9.96;70.38;101221.84;1703478;83;21043;-70
2021/09/30 06:11:20;;;;;;;23.83;15.88;;;;;;;10.71;67.28;101215.31;1702368;83;21031;-72
2021/09/30 06:14:04;;;;;;;21.27;14.53;;;;;;;10.76;65.90;101213.55;1687940;83;21071;-70
2021/09/30 06:16:30;;;;;;;21.33;15.78;;;;;;;10.77;65.60;101221.20;1714447;81;21574;-71
2021/09/30 06:19:01;;;;;;;20.45;14.95;;;;;;;10.83;65.39;101210.17;1700686;83;21609;-71
2021/09/30 06:21:30;;;;;;;21.42;14.28;;;;;;;10.96;64.56;101215.90;1683546;85;21023;-70
2021/09/30 06:23:57;;;;;;;20.60;16.23;;;;;;;11.05;63.94;101217.73;1715960;83;21676;-72
2021/09/30 06:26:25;;;;;;;25.20;15.25;;;;;;;11.26;64.09;101217.11;1715496;82;21035;-72
2021/09/30 06:28:54;;;;;;;25.92;15.50;;;;;;;11.51;63.92;101209.98;1702381;81;21059;-72
2021/09/30 06:31:21;;;;;;;19.85;14.40;;;;;;;11.71;63.32;101213.97;1696745;83;21119;-71
2021/09/30 06:33:55;;;;;;;19.57;15.95;;;;;;;11.85;62.62;101218.59;1715126;82;21581;-71
2021/09/30 06:36:36;;;;;;;21.02;15.28;;;;;;;12.00;62.00;101219.41;1706801;82;21537;-71
2021/09/30 06:39:03;;;;;;;19.50;14.58;;;;;;;12.15;61.34;101221.86;1693904;82;21131;-72
2021/09/30 06:41:32;;;;;;;19.80;14.73;;;;;;;12.28;61.07;101227.02;1714880;83;21079;-72
2021/09/30 06:44:07;;;;;;;21.85;13.95;;;;;;;12.40;60.64;101218.73;1708153;81;21054;-72
2021/09/30 06:46:52;;;;;;;17.90;13.85;;;;;;;12.53;60.17;101221.16;1707224;83;21028;-71
2021/09/30 06:49:19;;;;;;;23.55;15.45;;;;;;;12.70;59.36;101222.50;1717402;81;21963;-72
2021/09/30 06:51:49;;;;;;;19.82;13.95;;;;;;;12.79;58.80;101217.72;1674584;85;21608;-73
2021/09/30 06:54:16;;;;;;;16.70;13.05;;;;;;;12.79;58.45;101219.63;1691271;83;21648;-73
2021/09/30 06:56:55;;;;;;;17.92;12.65;;;;;;;12.76;58.56;101224.23;1686272;84;21038;-72
2021/09/30 06:59:41;;;;;;;15.78;11.57;;;;;;;12.87;58.60;101221.94;1599756;88;22170;-72
2021/09/30 07:02:26;;;;;;;13.20;10.75;;;;;;;12.99;57.58;101226.78;1601042;88;21051;-72
2021/09/30 07:05:04;;;;;;;12.68;10.20;;;;;;;13.11;56.91;101228.08;1571197;90;21091;-72
2021/09/30 07:07:35;;;;;;;12.78;10.63;;;;;;;13.28;57.26;101228.85;1689302;84;21047;-73
2021/09/30 07:10:03;;;;;;;17.73;11.75;;;;;;;13.53;57.37;101229.72;1686803;84;20996;-72
2021/09/30 07:12:31;;;;;;;11.48;9.08;;;;;;;13.79;55.72;101224.27;1690258;83;21036;-70
2021/09/30 07:14:58;;;;;;;10.50;6.60;;;;;;;14.05;56.00;101226.73;1678874;83;20991;-71
2021/09/30 07:17:24;;;;;;;11.08;7.47;;;;;;;14.24;52.50;101225.83;1688182;83;21648;-70
2021/09/30 07:19:53;;;;;;;7.65;6.37;;;;;;;14.12;51.05;101223.78;1685104;84;21026;-69
2021/09/30 07:22:20;;;;;;;9.85;7.50;;;;;;;14.07;51.38;101227.83;1677052;84;21572;-70
2021/09/30 07:24:47;;;;;;;8.58;6.12;;;;;;;14.09;50.33;101231.16;1680643;85;21008;-72
2021/09/30 07:27:15;;;;;;;7.08;4.87;;;;;;;14.11;49.75;101231.17;1685721;84;21040;-72
2021/09/30 07:29:42;;;;;;;7.22;5.50;;;;;;;14.09;48.92;101229.25;1698139;83;21600;-72
2021/09/30 07:32:08;;;;;;;9.65;5.78;;;;;;;14.08;48.36;101227.59;1691225;83;21047;-73
2021/09/30 07:34:34;;;;;;;7.42;5.58;;;;;;;14.15;49.15;101224.09;1680379;84;21560;-71
2021/09/30 07:37:01;;;;;;;7.60;4.85;;;;;;;14.29;48.15;101226.69;1693750;85;21090;-71
2021/09/30 07:39:29;;;;;;;6.53;5.10;;;;;;;14.32;47.28;101226.16;1686363;83;21585;-71
2021/09/30 07:41:56;;;;;;;9.30;5.50;;;;;;;14.36;47.09;101229.24;1687639;84;21058;-71
2021/09/30 07:44:25;;;;;;;6.87;4.20;;;;;;;14.38;47.36;101229.25;1685471;84;21050;-72
2021/09/30 07:46:53;;;;;;;5.33;4.10;;;;;;;14.56;47.20;101225.29;1669648;85;21089;-71
2021/09/30 07:49:20;;;;;;;6.42;4.15;;;;;;;14.73;45.73;101221.88;1690122;83;21072;-69
2021/09/30 07:51:47;;;;;;;7.10;4.45;;;;;;;14.81;46.03;101220.54;1688885;82;21048;-69
2021/09/30 07:54:14;;;;;;;6.20;3.83;;;;;;;15.03;46.20;101226.72;1671742;85;21047;-68
2021/09/30 07:56:40;;;;;;;6.72;4.08;;;;;;;15.17;45.95;101217.47;1673216;85;21037;-70
2021/09/30 07:59:06;;;;;;;;;;;;;;;15.09;44.45;101227.02;1650807;85;21579;-70
2021/09/30 08:01:33;;;;;;;6.47;4.70;;;;;;;14.88;45.29;101234.30;1670855;85;20161;-69
2021/09/30 08:04:00;;;;;;;6.42;4.67;;;;;;;14.59;44.64;101222.05;1685389;84;21046;-69
2021/09/30 08:06:26;;;;;;;6.80;4.60;;;;;;;14.32;45.46;101228.91;1678278;85;21579;-71
2021/09/30 08:08:54;;;;;;;7.40;4.20;;;;;;;14.10;44.92;101232.81;1673317;84;21023;-71
2021/09/30 08:11:22;;;;;;;7.85;4.90;;;;;;;13.94;46.23;101233.19;1674931;85;21476;-69
2021/09/30 08:13:48;;;;;;;10.13;5.50;;;;;;;14.19;46.73;101223.03;1685862;85;21122;-70
2021/09/30 08:16:18;;;;;;;11.08;6.92;;;;;;;14.44;45.87;101230.97;1685741;85;21557;-71
2021/09/30 08:18:47;;;;;;;8.08;4.50;;;;;;;14.40;46.14;101227.09;1649393;85;21070;-70
2021/09/30 08:21:14;;;;;;;8.20;4.30;;;;;;;14.26;45.03;101236.80;1682397;84;20988;-72
2021/09/30 08:23:42;;;;;;;8.20;4.60;;;;;;;13.84;45.36;101229.81;1696452;83;21132;-72
2021/09/30 08:26:09;;;;;;;6.83;4.50;;;;;;;13.53;46.15;101230.55;1702111;84;21064;-71
2021/09/30 08:28:36;;;;;;;7.67;4.53;;;;;;;13.36;46.72;101222.92;1647474;84;21057;-71
2021/09/30 08:31:04;;;;;;;8.40;5.25;;;;;;;13.26;47.11;101228.27;1661902;85;21051;-70
2021/09/30 08:33:32;;;;;;;11.05;4.70;;;;;;;13.23;47.48;101224.13;1683027;84;21566;-70
2021/09/30 08:35:59;;;;;;;6.60;4.87;;;;;;;13.32;47.95;101230.00;1686118;85;20972;-71
2021/09/30 08:38:26;;;;;;;6.50;4.75;;;;;;;13.33;47.75;101222.06;1685748;85;21122;-71
2021/09/30 08:40:53;;;;;;;9.68;4.78;;;;;;;13.27;48.02;101218.45;1676590;85;21458;-69
2021/09/30 08:43:19;;;;;;;6.67;5.12;;;;;;;13.24;48.11;101225.80;1685856;85;21103;-69
2021/09/30 08:45:45;;;;;;;;;;;;;;;13.34;47.59;101230.56;1684634;84;21028;-70
2021/09/30 08:48:12;;;;;;;7.57;5.40;;;;;;;13.33;47.67;101230.27;1686440;83;20502;-69
2021/09/30 08:50:40;;;;;;;9.38;5.87;;;;;;;13.17;48.07;101227.89;1686612;85;21063;-70
2021/09/30 08:53:09;;;;;;;11.33;5.85;;;;;;;13.12;47.99;101229.17;1671030;85;21099;-69
2021/09/30 08:55:38;;;;;;;9.03;6.17;;;;;;;13.30;48.72;101230.25;1675020;85;21111;-66
2021/09/30 08:58:06;;;;;;;7.20;5.30;;;;;;;13.61;47.73;101231.44;1655417;84;21033;-65
2021/09/30 09:00:35;;;;;;;7.78;4.85;;;;;;;13.74;47.34;101231.07;1675971;85;21041;-65
2021/09/30 09:03:02;;;;;;;7.15;5.37;;;;;;;13.68;47.37;101228.50;1675792;85;21032;-65
2021/09/30 09:05:29;;;;;;;6.92;5.80;;;;;;;13.41;47.54;101230.66;1675713;86;21056;-65
2021/09/30 09:08:04;;;;;;;7.78;5.42;;;;;;;13.20;48.03;101217.81;1675543;86;21123;-66
2021/09/30 09:10:39;;;;;;;10.35;6.33;;;;;;;13.15;48.23;101226.47;1675776;85;21458;-65
2021/09/30 09:13:15;;;;;;;10.08;6.53;;;;;;;13.16;48.62;101227.59;1675492;85;21111;-65
2021/09/30 09:15:47;;;;;;;7.87;5.58;;;;;;;13.11;48.58;101222.05;1675658;85;21016;-66
2021/09/30 09:18:34;;;;;;;8.45;5.67;;;;;;;12.96;49.09;101225.38;1674727;85;21119;-66
2021/09/30 09:21:22;;;;;;;6.58;5.00;;;;;;;12.89;49.56;101221.97;1664567;85;20971;-66
2021/09/30 09:23:58;;;;;;;5.80;4.58;;;;;;;13.33;49.99;101223.44;1707679;82;21026;-67
2021/09/30 09:26:32;;;;;;;5.53;4.20;;;;;;;13.94;47.43;101222.23;1676884;84;20956;-66
2021/09/30 09:29:14;;;;;;;5.03;3.85;;;;;;;14.17;46.70;101230.13;1668504;86;21040;-66
2021/09/30 09:31:48;;;;;;;8.53;4.40;;;;;;;14.33;45.95;101221.52;1667406;86;20984;-65
2021/09/30 09:34:35;;;;;;;6.22;4.62;;;;;;;14.40;45.35;101227.64;1683663;84;21043;-67
2021/09/30 09:37:31;;;;;;;5.58;4.15;;;;;;;14.33;46.04;101221.52;1714796;83;21011;-66
2021/09/30 09:39:58;;;;;;;6.92;4.53;;;;;;;14.24;45.51;101226.63;1683669;85;21083;-66
2021/09/30 09:42:30;;;;;;;8.90;5.12;;;;;;;14.00;45.69;101228.04;1717823;83;21031;-66
2021/09/30 09:45:05;;;;;;;7.58;4.60;;;;;;;13.75;46.28;101231.88;1683372;85;20959;-66
2021/09/30 09:47:35;;;;;;;5.80;4.90;;;;;;;13.54;46.89;101231.34;1715418;83;21533;-66
2021/09/30 09:50:24;;;;;;;8.30;4.80;;;;;;;13.33;47.59;101231.10;1716910;83;21019;-66
2021/09/30 09:53:00;;;;;;;7.03;4.95;;;;;;;13.18;47.69;101226.78;1723221;81;21069;-67
2021/09/30 09:55:33;;;;;;;5.90;4.90;;;;;;;13.04;48.43;101224.67;1730429;83;21009;-67
2021/09/30 09:58:16;;;;;;;8.35;4.87;;;;;;;12.91;48.53;101226.66;1722404;83;21141;-66
2021/09/30 10:01:00;;;;;;;5.75;4.33;;;;;;;12.76;48.79;101228.33;1757248;81;21034;-66
2021/09/30 10:03:33;;;;;;;6.12;4.03;;;;;;;12.60;49.44;101233.28;1733096;81;21161;-66
2021/09/30 10:06:04;;;;;;;9.03;4.25;;;;;;;12.50;49.72;101241.31;1695981;84;21501;-66
2021/09/30 10:08:32;;;;;;;5.72;4.15;;;;;;;12.41;49.62;101242.25;1667993;84;21609;-66
2021/09/30 10:10:59;;;;;;;6.50;5.25;;;;;;;12.35;50.20;101236.42;1667044;86;21049;-66
2021/09/30 10:13:27;;;;;;;9.08;5.03;;;;;;;12.34;50.62;101242.95;1678174;85;21019;-65
2021/09/30 10:15:55;;;;;;;7.95;5.17;;;;;;;12.28;50.73;101237.95;1685253;85;20998;-65
2021/09/30 10:18:25;;;;;;;7.67;5.15;;;;;;;12.26;50.64;101233.78;1677784;85;21058;-65
2021/09/30 10:20:54;;;;;;;7.00;4.70;;;;;;;12.19;50.58;101236.67;1696453;84;21050;-66
2021/09/30 10:23:24;;;;;;;9.80;5.37;;;;;;;12.13;50.35;101227.28;1696238;84;21042;-65
2021/09/30 10:25:53;;;;;;;6.05;4.97;;;;;;;12.01;50.69;101229.27;1695672;84;21470;-65
2021/09/30 10:28:20;;;;;;;10.48;5.42;;;;;;;11.87;50.92;101225.45;1677486;85;21622;-65
2021/09/30 10:30:49;;;;;;;7.97;5.80;;;;;;;11.79;51.72;101223.13;1651124;87;21079;-66
2021/09/30 10:33:22;;;;;;;8.13;6.05;;;;;;;11.77;52.25;101223.89;1659634;85;21034;-65
2021/09/30 10:35:52;;;;;;;9.78;5.12;;;;;;;11.77;52.61;101223.89;1656413;85;21889;-65
2021/09/30 10:38:25;;;;;;;7.45;5.42;;;;;;;11.81;52.95;101226.44;1677270;84;21081;-65
2021/09/30 10:41:13;;;;;;;6.58;5.30;;;;;;;11.84;52.92;101228.67;1691570;85;20974;-66
2021/09/30 10:43:47;;;;;;;9.43;6.37;;;;;;;11.89;53.25;101217.03;1692498;84;21070;-66
2021/09/30 10:46:36;;;;;;;9.75;6.72;;;;;;;11.96;53.24;101222.63;1692859;85;20995;-66
2021/09/30 10:49:26;;;;;;;8.25;7.00;;;;;;;12.02;52.70;101219.45;1692594;84;21058;-65
2021/09/30 10:52:17;;;;;;;12.98;7.42;;;;;;;11.92;52.85;101221.47;1692183;85;21079;-66
2021/09/30 10:55:04;;;;;;;9.40;6.62;;;;;;;11.82;52.94;101222.64;1684807;85;21039;-65
2021/09/30 10:57:37;;;;;;;9.65;6.67;;;;;;;11.73;53.77;101224.62;1741096;82;21558;-66
2021/09/30 11:00:21;;;;;;;9.68;6.97;;;;;;;11.73;54.22;101219.16;1741193;82;21035;-66
2021/09/30 11:03:20;;;;;;;7.85;5.95;;;;;;;11.76;53.89;101215.41;1726956;82;21063;-66
2021/09/30 11:05:43;;;;;;;9.43;6.50;;;;;;;11.81;53.70;101209.23;1739976;82;21023;-66
2021/09/30 11:08:27;;;;;;;9.03;7.83;;;;;;;11.82;53.04;101213.63;1716155;82;21067;-66
2021/09/30 11:11:08;;;;;;;8.60;6.40;;;;;;;11.84;53.58;101215.03;1740799;82;21058;-66
2021/09/30 11:13:46;;;;;;;8.08;6.42;;;;;;;11.93;53.58;101212.21;1740768;82;21079;-66
2021/09/30 11:16:21;;;;;;;10.28;7.53;;;;;;;12.02;53.50;101211.27;1740999;82;21074;-66
2021/09/30 11:19:00;;;;;;;8.15;5.97;;;;;;;12.12;53.15;101210.61;1740993;82;21153;-66
2021/09/30 11:21:36;;;;;;;8.15;6.42;;;;;;;12.17;53.36;101204.72;1741128;82;21577;-67
2021/09/30 11:24:12;;;;;;;10.08;6.83;;;;;;;12.24;53.49;101199.92;1740930;82;21054;-66
2021/09/30 11:26:55;;;;;;;8.55;6.72;;;;;;;12.30;53.12;101202.19;1740978;82;21546;-67
2021/09/30 11:29:26;;;;;;;7.28;5.62;;;;;;;12.32;52.73;101195.42;1740745;82;21083;-66
2021/09/30 11:32:02;;;;;;;8.33;5.87;;;;;;;12.38;52.57;101193.59;1741221;82;21027;-65
2021/09/30 11:34:34;;;;;;;7.87;5.58;;;;;;;12.43;51.98;101196.42;1740735;82;21051;-65
2021/09/30 11:37:30;;;;;;;8.48;5.30;;;;;;;12.46;52.20;101197.28;1740865;82;21027;-65
2021/09/30 11:39:59;;;;;;;7.65;5.53;;;;;;;12.54;51.95;101191.38;1740981;82;21561;-66
2021/09/30 11:42:40;;;;;;;8.03;6.03;;;;;;;12.57;51.71;101186.81;1741063;82;20965;-66
2021/09/30 11:45:16;;;;;;;9.85;7.50;;;;;;;12.60;51.71;101185.47;1741283;82;21463;-67
2021/09/30 11:47:43;;;;;;;7.15;5.62;;;;;;;12.62;51.50;101184.67;1741024;82;21565;-66
2021/09/30 11:50:23;;;;;;;9.90;6.17;;;;;;;12.64;51.74;101183.90;1741096;82;21501;-66
2021/09/30 11:53:07;;;;;;;9.90;6.85;;;;;;;12.66;51.66;101178.47;1741665;82;21565;-67
2021/09/30 11:55:40;;;;;;;8.00;6.05;;;;;;;12.63;51.31;101175.41;1749714;82;21513;-66
2021/09/30 11:58:04;;;;;;;8.70;5.62;;;;;;;12.59;50.83;101178.34;1750054;82;21071;-67
2021/09/30 12:00:33;;;;;;;8.65;6.10;;;;;;;12.53;51.19;101178.82;1750618;82;21007;-66
2021/09/30 12:03:06;;;;;;;9.38;7.17;;;;;;;12.48;51.27;101177.36;1750918;82;21090;-66
2021/09/30 12:07:29;;;;;;;9.60;6.10;;;;;;;12.51;51.57;101161.00;1800162;79;22531;-66
2021/09/30 12:09:59;;;;;;;9.78;7.25;;;;;;;12.40;51.68;101164.12;1753115;82;21510;-67
2021/09/30 12:12:30;;;;;;;7.25;6.40;;;;;;;12.37;51.33;101156.43;1752985;81;21007;-64
2021/09/30 12:14:58;;;;;;;9.80;6.37;;;;;;;12.30;51.71;101159.86;1752098;82;21632;-67
2021/09/30 12:17:30;;;;;;;7.83;6.40;;;;;;;12.29;51.76;101153.57;1752883;82;21031;-66
2021/09/30 12:19:58;;;;;;;9.53;7.00;;;;;;;12.30;52.00;101155.77;1752815;82;21007;-66
2021/09/30 12:22:29;;;;;;;9.60;6.87;;;;;;;12.29;51.70;101153.57;1752938;82;21094;-67
2021/09/30 12:24:59;;;;;;;9.38;6.70;;;;;;;12.29;52.01;101155.50;1752635;82;21914;-66
2021/09/30 12:27:31;;;;;;;7.87;6.20;;;;;;;12.29;51.93;101142.65;1752888;82;21011;-66
2021/09/30 12:30:09;;;;;;;9.13;7.22;;;;;;;12.30;51.64;101146.21;1753427;82;20979;-66
2021/09/30 12:32:38;;;;;;;7.75;6.15;;;;;;;12.30;51.29;101140.75;1753335;82;21015;-66
2021/09/30 12:35:10;;;;;;;9.68;5.42;;;;;;;12.27;51.15;101131.70;1753146;82;21070;-65
2021/09/30 12:37:40;;;;;;;8.58;5.95;;;;;;;12.25;50.89;101139.33;1752034;82;21180;-65
2021/09/30 12:40:15;;;;;;;8.55;6.25;;;;;;;12.23;50.76;101144.19;1752795;82;21034;-65
2021/09/30 12:43:06;;;;;;;10.43;7.47;;;;;;;12.19;50.79;101138.39;1752661;81;21055;-65
2021/09/30 12:45:40;;;;;;;10.35;7.05;;;;;;;12.16;50.37;101134.80;1752747;82;21557;-66
2021/09/30 12:48:16;;;;;;;9.75;7.20;;;;;;;12.08;50.30;101125.66;1753225;82;21003;-66
2021/09/30 12:50:47;;;;;;;9.45;5.85;;;;;;;12.08;50.95;101122.92;1753153;82;21015;-66
2021/09/30 12:53:15;;;;;;;8.13;5.67;;;;;;;12.08;51.07;101128.95;1753281;82;21548;-68
2021/09/30 12:55:42;;;;;;;8.75;5.85;;;;;;;12.08;51.07;101123.49;1731567;80;21599;-67
2021/09/30 12:58:29;;;;;;;;;;;;;;;12.06;50.92;101122.36;1739119;82;21062;-66
2021/09/30 13:00:58;;;;;;;10.50;7.27;;;;;;;12.07;51.10;101119.92;1694117;83;20141;-69
2021/09/30 13:03:25;;;;;;;8.48;6.22;;;;;;;12.02;51.01;101121.20;1692374;84;21054;-70
2021/09/30 13:05:53;;;;;;;;;;;;;;;12.03;50.99;101116.03;1677577;84;21589;-68
2021/09/30 13:08:41;;;;;;;12.75;9.90;;;;;;;12.02;50.57;101102.09;1664079;86;20145;-68
2021/09/30 13:11:31;;;;;;;9.78;6.58;;;;;;;11.94;50.68;101106.59;1652045;86;21024;-68
2021/09/30 13:14:22;;;;;;;9.28;7.05;;;;;;;11.91;50.81;101105.72;1725907;83;21054;-67
2021/09/30 13:16:59;;;;;;;13.93;7.53;;;;;;;11.88;50.65;101102.13;1665635;85;21161;-66
2021/09/30 13:19:47;;;;;;;10.30;7.72;;;;;;;11.84;50.59;101097.70;1693152;83;21627;-68
2021/09/30 13:22:17;;;;;;;9.80;6.17;;;;;;;11.82;50.46;101097.14;1724828;83;21038;-68
2021/09/30 13:24:44;;;;;;;10.63;7.08;;;;;;;11.81;50.63;101091.37;1727799;83;21054;-68
2021/09/30 13:27:13;;;;;;;9.45;6.95;;;;;;;11.84;50.88;101085.95;1715439;83;21082;-68
2021/09/30 13:29:41;;;;;;;11.40;6.85;;;;;;;11.85;50.60;101093.08;1698467;84;21133;-69
2021/09/30 13:32:08;;;;;;;9.35;6.00;;;;;;;11.85;50.95;101079.44;1711644;83;21002;-67
2021/09/30 13:34:35;;;;;;;10.38;7.25;;;;;;;11.87;50.79;101086.83;1698589;84;21090;-67
2021/09/30 13:37:02;;;;;;;10.68;7.28;;;;;;;11.87;51.21;101087.66;1724482;83;21046;-67
2021/09/30 13:39:29;;;;;;;10.88;6.55;;;;;;;11.89;50.65;101086.05;1727759;83;21629;-68
2021/09/30 13:41:55;;;;;;;;;;;;;;;11.89;51.17;101083.33;1718998;83;21070;-67
2021/09/30 13:44:21;;;;;;;9.10;6.60;;;;;;;11.88;50.79;101085.22;1698738;84;20154;-68
2021/09/30 13:46:48;;;;;;;9.78;6.62;;;;;;;11.77;51.05;101072.48;1721516;83;21055;-67
2021/09/30 13:49:15;;;;;;;;;;;;;;;11.77;51.53;101076.58;1730300;83;21027;-67
2021/09/30 13:51:42;;;;;;;8.73;6.92;;;;;;;11.80;51.81;101073.87;1704975;83;20169;-67
2021/09/30 13:54:08;;;;;;;9.23;6.40;;;;;;;11.74;51.62;101066.70;1698533;84;21170;-66
2021/09/30 13:56:36;;;;;;;9.18;6.70;;;;;;;11.75;51.90;101061.54;1718898;83;21050;-67
2021/09/30 13:59:03;;;;;;;10.13;6.53;;;;;;;11.79;52.09;101072.25;1713142;83;21003;-67
2021/09/30 14:01:30;;;;;;;;;;;;;;;11.79;51.99;101063.53;1730302;83;21109;-67
2021/09/30 14:03:56;;;;;;;9.55;5.92;;;;;;;11.79;52.04;101058.61;1707878;83;20477;-68
2021/09/30 14:06:22;;;;;;;8.95;5.72;;;;;;;11.72;51.89;101066.12;1715581;83;21031;-67
2021/09/30 14:08:53;;;;;;;8.35;6.05;;;;;;;11.73;51.90;101060.94;1712073;83;21122;-67
2021/09/30 14:11:22;;;;;;;11.05;7.90;;;;;;;11.72;51.84;101050.59;1720220;82;20996;-67
2021/09/30 14:13:53;;;;;;;13.55;8.40;;;;;;;11.72;51.97;101047.03;1662011;86;21079;-67
2021/09/30 14:16:20;;;;;;;18.05;12.78;;;;;;;11.72;51.77;101051.13;1700934;82;21094;-67
2021/09/30 14:18:49;;;;;;;13.70;10.53;;;;;;;11.71;51.85;101045.38;1713948;82;21882;-67
2021/09/30 14:21:15;;;;;;;19.45;13.03;;;;;;;11.72;52.04;101047.03;1736562;82;21074;-68
2021/09/30 14:23:43;;;;;;;15.60;9.40;;;;;;;11.72;52.40;101045.67;1710052;82;21087;-67
2021/09/30 14:26:09;;;;;;;17.23;10.13;;;;;;;11.71;52.41;101048.93;1701638;82;21106;-67
2021/09/30 14:28:35;;;;;;;28.92;15.65;;;;;;;11.71;52.48;101048.09;1695194;84;21067;-69
2021/09/30 14:31:02;;;;;;;33.88;22.58;;;;;;;11.70;52.69;101054.59;1705689;82;21490;-67